createdAt,value
2022-08-25T00:02:00.101Z,75.90
2022-08-25T00:04:31.010Z,75.96
2022-08-25T00:07:03.948Z,76.08
2022-08-25T00:09:33.914Z,76.16
2022-08-25T00:12:02.905Z,75.94
2022-08-25T00:14:36.307Z,76.15
2022-08-25T00:17:06.125Z,75.97
2022-08-25T00:19:37.006Z,76.28
2022-08-25T00:22:08.129Z,76.31
2022-08-25T00:24:36.785Z,76.38
2022-08-25T00:27:06.084Z,76.47
2022-08-25T00:29:34.732Z,76.61
2022-08-25T00:32:03.334Z,76.54
2022-08-25T00:34:36.072Z,76.70
2022-08-25T00:37:07.381Z,76.54
2022-08-25T00:39:36.394Z,76.66
2022-08-25T00:42:06.906Z,76.75
2022-08-25T00:44:44.534Z,76.83
2022-08-25T00:47:13.262Z,76.95
2022-08-25T00:49:59.591Z,77.05
2022-08-25T00:52:42.931Z,77.11
2022-08-25T00:55:13.023Z,77.11
2022-08-25T00:57:46.131Z,77.52
2022-08-25T01:00:24.851Z,77.30
2022-08-25T01:02:53.753Z,77.44
2022-08-25T01:05:22.650Z,77.58
2022-08-25T01:07:52.843Z,77.57
2022-08-25T01:10:28.930Z,77.68
2022-08-25T01:13:03.113Z,77.81
2022-08-25T01:15:35.278Z,78.00
2022-08-25T01:18:07.811Z,78.08
2022-08-25T01:20:35.837Z,78.12
2022-08-25T01:23:04.422Z,78.30
2022-08-25T01:26:01.785Z,78.33
2022-08-25T01:28:29.949Z,78.41
2022-08-25T01:30:58.006Z,78.49
2022-08-25T01:33:26.136Z,78.51
2022-08-25T01:35:54.553Z,78.60
2022-08-25T01:38:23.452Z,78.74
2022-08-25T01:40:51.570Z,78.86
2022-08-25T01:43:37.195Z,78.69
2022-08-25T01:46:06.893Z,78.77
2022-08-25T01:48:35.198Z,78.86
2022-08-25T01:51:03.167Z,78.88
2022-08-25T01:53:33.685Z,79.04
2022-08-25T01:56:12.101Z,78.99
2022-08-25T01:58:44.006Z,78.88
2022-08-25T02:01:16.355Z,79.10
2022-08-25T02:03:47.193Z,79.09
2022-08-25T02:06:19.649Z,78.99
2022-08-25T02:08:54.366Z,79.04
2022-08-25T02:11:24.402Z,79.05
2022-08-25T02:13:52.937Z,79.09
2022-08-25T02:16:29.609Z,79.07
2022-08-25T02:18:57.650Z,79.14
2022-08-25T02:21:25.834Z,79.17
2022-08-25T02:23:54.902Z,79.15
2022-08-25T02:26:23.062Z,79.27
2022-08-25T02:28:52.269Z,79.12
2022-08-25T02:31:22.753Z,79.26
2022-08-25T02:33:52.133Z,79.25
2022-08-25T02:36:20.453Z,79.11
2022-08-25T02:38:48.765Z,79.30
2022-08-25T02:41:31.412Z,79.23
2022-08-25T02:44:01.988Z,79.32
2022-08-25T02:46:31.164Z,79.25
2022-08-25T02:48:59.460Z,79.55
2022-08-25T02:51:30.287Z,79.35
2022-08-25T02:54:02.185Z,79.33
2022-08-25T02:56:31.635Z,79.37
2022-08-25T02:59:00.883Z,79.44
2022-08-25T03:01:30.793Z,79.39
2022-08-25T03:03:59.709Z,79.32
2022-08-25T03:06:28.659Z,79.29
2022-08-25T03:08:57.083Z,79.42
2022-08-25T03:11:26.801Z,79.59
2022-08-25T03:13:56.611Z,79.66
2022-08-25T03:16:27.803Z,79.68
2022-08-25T03:18:57.033Z,79.84
2022-08-25T03:21:26.945Z,79.70
2022-08-25T03:23:55.452Z,79.70
2022-08-25T03:26:42.242Z,79.75
2022-08-25T03:29:10.690Z,79.79
2022-08-25T03:31:39.140Z,79.79
2022-08-25T03:34:07.142Z,79.93
2022-08-25T03:36:35.043Z,79.81
2022-08-25T03:39:04.290Z,79.62
2022-08-25T03:41:33.087Z,79.86
2022-08-25T03:44:04.227Z,79.89
2022-08-25T03:46:35.545Z,79.96
2022-08-25T03:49:05.342Z,79.95
2022-08-25T03:51:36.444Z,79.96
2022-08-25T03:54:05.329Z,80.20
2022-08-25T03:56:33.431Z,80.17
2022-08-25T03:59:01.404Z,80.22
2022-08-25T04:01:30.467Z,80.35
2022-08-25T04:03:58.419Z,80.17
2022-08-25T04:06:26.455Z,80.24
2022-08-25T04:08:54.473Z,80.49
2022-08-25T04:11:23.501Z,80.35
2022-08-25T04:13:53.385Z,80.33
2022-08-25T04:16:24.534Z,80.36
2022-08-25T04:18:55.225Z,80.42
2022-08-25T04:21:24.220Z,80.32
2022-08-25T04:23:53.944Z,80.57
2022-08-25T04:26:32.457Z,80.64
2022-08-25T04:29:01.913Z,80.45
2022-08-25T04:31:30.855Z,80.49
2022-08-25T04:34:02.713Z,80.92
2022-08-25T04:36:31.230Z,80.75
2022-08-25T04:39:00.022Z,80.99
2022-08-25T04:41:30.324Z,81.05
2022-08-25T04:44:00.671Z,81.01
2022-08-25T04:46:31.778Z,81.11
2022-08-25T04:49:01.135Z,81.08
2022-08-25T04:51:50.846Z,81.14
2022-08-25T04:54:22.138Z,81.14
2022-08-25T04:56:54.445Z,81.06
2022-08-25T04:59:30.076Z,81.32
2022-08-25T05:02:03.295Z,81.36
2022-08-25T05:04:33.403Z,81.42
2022-08-25T05:07:02.497Z,81.43
2022-08-25T05:09:32.502Z,81.35
2022-08-25T05:12:03.143Z,81.35
2022-08-25T05:14:32.901Z,81.73
2022-08-25T05:17:02.202Z,81.76
2022-08-25T05:19:31.153Z,81.72
2022-08-25T05:21:59.691Z,81.44
2022-08-25T05:24:28.303Z,81.48
2022-08-25T05:26:57.462Z,81.35
2022-08-25T05:29:25.999Z,81.38
2022-08-25T05:31:54.449Z,81.56
2022-08-25T05:34:22.395Z,81.23
2022-08-25T05:36:51.409Z,81.19
2022-08-25T05:39:19.489Z,80.94
2022-08-25T05:41:47.512Z,81.10
2022-08-25T05:44:19.059Z,81.04
2022-08-25T05:46:49.560Z,81.07
2022-08-25T05:49:17.543Z,80.82
2022-08-25T05:51:45.396Z,80.71
2022-08-25T05:54:13.438Z,80.63
2022-08-25T05:56:45.615Z,80.60
2022-08-25T05:59:13.860Z,80.08
2022-08-25T06:02:01.039Z,80.18
2022-08-25T06:04:29.492Z,80.26
2022-08-25T06:06:57.350Z,80.00
2022-08-25T06:09:25.409Z,79.90
2022-08-25T06:11:55.206Z,80.01
2022-08-25T06:14:24.695Z,79.76
2022-08-25T06:16:53.115Z,79.78
2022-08-25T06:19:23.724Z,79.40
2022-08-25T06:21:58.590Z,79.17
2022-08-25T06:24:28.159Z,78.71
2022-08-25T06:26:57.553Z,78.65
2022-08-25T06:29:26.453Z,78.45
2022-08-25T06:31:54.484Z,78.23
2022-08-25T06:34:24.281Z,78.01
2022-08-25T06:36:53.017Z,78.08
2022-08-25T06:39:24.191Z,78.15
2022-08-25T06:41:56.853Z,77.95
2022-08-25T06:44:27.909Z,77.90
2022-08-25T06:46:56.186Z,77.76
2022-08-25T06:49:28.739Z,77.41
2022-08-25T06:51:59.273Z,77.15
2022-08-25T06:54:27.143Z,77.35
2022-08-25T06:56:55.220Z,77.43
2022-08-25T06:59:23.351Z,77.33
2022-08-25T07:01:51.447Z,77.24
2022-08-25T07:04:21.133Z,77.23
2022-08-25T07:06:49.152Z,76.97
2022-08-25T07:09:17.226Z,77.07
2022-08-25T07:11:46.813Z,77.23
2022-08-25T07:14:16.781Z,77.23
2022-08-25T07:16:49.387Z,77.16
2022-08-25T07:19:21.115Z,77.10
2022-08-25T07:21:52.136Z,77.25
2022-08-25T07:24:21.026Z,76.95
2022-08-25T07:26:50.244Z,76.16
2022-08-25T07:29:32.813Z,76.18
2022-08-25T07:32:03.022Z,75.98
2022-08-25T07:34:52.261Z,75.80
2022-08-25T07:40:21.795Z,75.27
2022-08-25T07:42:53.533Z,75.15
2022-08-25T07:45:30.478Z,74.94
2022-08-25T07:48:12.152Z,75.16
2022-08-25T07:50:45.440Z,74.57
2022-08-25T07:53:15.105Z,74.52
2022-08-25T07:55:45.136Z,74.25
2022-08-25T07:58:15.834Z,74.00
2022-08-25T08:00:48.477Z,73.34
2022-08-25T08:03:42.209Z,72.91
2022-08-25T08:06:10.695Z,72.84
2022-08-25T08:08:43.961Z,72.90
2022-08-25T08:11:21.150Z,72.40
2022-08-25T08:13:52.468Z,72.61
2022-08-25T08:16:23.124Z,71.93
2022-08-25T08:18:52.719Z,71.67
2022-08-25T08:21:24.057Z,71.39
2022-08-25T08:23:58.064Z,71.36
2022-08-25T08:26:48.336Z,70.91
2022-08-25T08:29:16.656Z,71.03
2022-08-25T08:31:48.323Z,70.99
2022-08-25T08:34:16.692Z,70.59
2022-08-25T08:36:45.221Z,70.56
2022-08-25T08:39:13.751Z,70.66
2022-08-25T08:42:19.082Z,69.81
2022-08-25T08:45:25.219Z,69.01
2022-08-25T08:48:03.876Z,69.05
2022-08-25T08:51:17.922Z,68.62
2022-08-25T08:54:00.769Z,68.49
2022-08-25T08:56:34.795Z,68.02
2022-08-25T08:59:13.370Z,67.78
2022-08-25T09:01:53.996Z,67.31
2022-08-25T09:04:40.778Z,67.33
2022-08-25T09:07:16.678Z,67.45
2022-08-25T09:09:45.802Z,66.92
2022-08-25T09:12:34.343Z,66.73
2022-08-25T09:15:12.535Z,66.09
2022-08-25T09:18:05.616Z,65.90
2022-08-25T09:20:40.988Z,66.11
2022-08-25T09:23:20.142Z,66.08
2022-08-25T09:26:14.608Z,65.80
2022-08-25T09:28:51.962Z,65.78
2022-08-25T09:31:27.604Z,64.76
2022-08-25T09:34:03.518Z,64.45
2022-08-25T09:36:43.095Z,64.41
2022-08-25T09:42:06.424Z,64.22
2022-08-25T09:44:47.961Z,64.48
2022-08-25T09:47:35.827Z,64.20
2022-08-25T09:50:25.554Z,63.24
2022-08-25T09:53:13.706Z,63.40
2022-08-25T09:56:06.064Z,63.31
2022-08-25T09:58:34.127Z,63.43
2022-08-25T10:01:04.853Z,63.26
2022-08-25T10:03:36.531Z,62.71
2022-08-25T10:06:13.653Z,62.64
2022-08-25T10:08:56.463Z,62.88
2022-08-25T10:11:42.359Z,62.50
2022-08-25T10:14:26.696Z,62.48
2022-08-25T10:17:15.421Z,62.39
2022-08-25T10:19:44.403Z,61.94
2022-08-25T10:22:24.465Z,61.47
2022-08-25T10:24:53.112Z,61.57
2022-08-25T10:27:39.533Z,61.74
2022-08-25T10:30:17.462Z,61.73
2022-08-25T10:33:08.462Z,61.47
2022-08-25T10:35:47.266Z,60.97
2022-08-25T10:38:43.292Z,61.27
2022-08-25T10:41:29.661Z,60.97
2022-08-25T10:44:32.494Z,59.92
2022-08-25T10:47:22.189Z,59.70
2022-08-25T10:49:56.512Z,59.88
2022-08-25T10:52:39.382Z,59.81
2022-08-25T10:55:18.851Z,59.52
2022-08-25T10:57:52.858Z,58.93
2022-08-25T11:00:24.866Z,59.04
2022-08-25T11:03:06.529Z,58.79
2022-08-25T11:05:40.348Z,58.30
2022-08-25T11:08:27.095Z,57.80
2022-08-25T11:11:04.042Z,57.45
2022-08-25T11:13:47.821Z,57.58
2022-08-25T11:16:40.588Z,56.56
2022-08-25T11:19:17.846Z,55.99
2022-08-25T11:21:54.291Z,56.04
2022-08-25T11:24:48.523Z,55.25
2022-08-25T11:27:26.483Z,54.28
2022-08-25T11:30:22.063Z,48.39
2022-08-25T11:32:55.257Z,46.14
2022-08-25T11:35:37.891Z,43.68
2022-08-25T11:38:33.802Z,42.87
2022-08-25T11:41:18.331Z,38.71
2022-08-25T11:44:10.864Z,38.16
2022-08-25T11:46:45.753Z,38.44
2022-08-25T11:49:16.515Z,36.27
2022-08-25T11:51:48.265Z,36.91
2022-08-25T11:54:39.513Z,34.91
2022-08-25T11:57:22.439Z,34.76
2022-08-25T11:59:50.501Z,35.16
2022-08-25T12:02:40.727Z,35.97
2022-08-25T12:05:20.129Z,34.60
2022-08-25T12:08:08.590Z,35.16
2022-08-25T12:10:59.030Z,35.33
2022-08-25T12:13:44.269Z,32.34
2022-08-25T12:16:37.228Z,31.01
2022-08-25T12:19:26.755Z,31.89
2022-08-25T12:21:58.892Z,32.30
2022-08-25T12:24:49.833Z,31.34
2022-08-25T12:27:24.934Z,31.62
2022-08-25T12:30:27.616Z,31.29
2022-08-25T12:33:21.270Z,31.07
2022-08-25T12:36:11.173Z,31.33
2022-08-25T12:38:52.086Z,31.92
2022-08-25T12:41:24.486Z,31.87
2022-08-25T12:44:10.480Z,32.28
2022-08-25T12:46:43.663Z,31.08
2022-08-25T12:49:32.298Z,31.68
2022-08-25T12:52:15.082Z,30.90
2022-08-25T12:54:54.701Z,29.37
2022-08-25T12:57:41.274Z,29.68
2022-08-25T13:00:22.509Z,30.34
2022-08-25T13:03:11.991Z,30.28
2022-08-25T13:05:46.501Z,30.28
2022-08-25T13:08:27.202Z,29.47
2022-08-25T13:11:20.242Z,29.32
2022-08-25T13:14:08.236Z,29.88
2022-08-25T13:16:38.382Z,30.18
2022-08-25T13:19:18.083Z,29.51
2022-08-25T13:21:47.462Z,29.86
2022-08-25T13:24:27.248Z,30.76
2022-08-25T13:27:02.075Z,30.67
2022-08-25T13:29:37.678Z,30.99
2022-08-25T13:32:14.423Z,30.53
2022-08-25T13:34:44.074Z,30.00
2022-08-25T13:37:30.208Z,30.23
2022-08-25T13:40:15.104Z,30.17
2022-08-25T13:42:55.664Z,30.19
2022-08-25T13:45:31.693Z,30.45
2022-08-25T13:47:59.876Z,30.00
2022-08-25T13:50:28.695Z,30.30
2022-08-25T13:53:22.887Z,30.67
2022-08-25T13:56:01.665Z,30.23
2022-08-25T13:58:45.043Z,29.73
2022-08-25T14:01:47.713Z,29.52
2022-08-25T14:04:32.509Z,29.68
2022-08-25T14:07:22.631Z,28.58
2022-08-25T14:09:57.314Z,29.19
2022-08-25T14:12:44.702Z,29.60
2022-08-25T14:15:22.212Z,29.43
2022-08-25T14:18:05.009Z,29.25
2022-08-25T14:20:36.018Z,29.08
2022-08-25T14:23:18.746Z,28.70
2022-08-25T14:25:49.605Z,28.63
2022-08-25T14:28:23.639Z,28.57
2022-08-25T14:30:56.446Z,28.20
2022-08-25T14:33:29.164Z,28.29
2022-08-25T14:36:00.151Z,28.78
2022-08-25T14:38:28.185Z,29.30
2022-08-25T14:40:59.239Z,28.95
2022-08-25T14:43:31.583Z,29.00
2022-08-25T14:46:10.057Z,29.04
2022-08-25T14:48:47.086Z,29.81
2022-08-25T14:51:17.297Z,30.52
2022-08-25T14:53:45.275Z,29.94
2022-08-25T14:56:14.243Z,29.42
2022-08-25T14:58:50.838Z,29.59
2022-08-25T15:01:26.467Z,29.44
2022-08-25T15:04:06.045Z,29.13
2022-08-25T15:06:36.518Z,29.75
2022-08-25T15:09:12.990Z,30.03
2022-08-25T15:11:45.006Z,30.36
2022-08-25T15:14:16.014Z,29.59
2022-08-25T15:16:51.597Z,28.91
2022-08-25T15:19:23.700Z,28.34
2022-08-25T15:21:52.556Z,28.51
2022-08-25T15:24:22.913Z,29.22
2022-08-25T15:29:30.394Z,29.29
2022-08-25T15:32:00.456Z,29.39
2022-08-25T15:34:54.598Z,28.84
2022-08-25T15:37:22.605Z,28.68
2022-08-25T15:39:50.800Z,28.90
2022-08-25T15:42:19.575Z,29.59
2022-08-25T15:44:53.073Z,30.32
2022-08-25T15:47:24.215Z,30.62
2022-08-25T15:50:04.107Z,30.73
2022-08-25T15:52:46.188Z,30.37
2022-08-25T15:55:16.595Z,30.25
2022-08-25T15:57:44.712Z,30.24
2022-08-25T16:00:13.533Z,31.31
2022-08-25T16:02:46.231Z,31.69
2022-08-25T16:05:16.377Z,31.97
2022-08-25T16:07:46.261Z,32.37
2022-08-25T16:10:20.833Z,32.32
2022-08-25T16:12:49.960Z,32.42
2022-08-25T16:15:17.881Z,33.03
2022-08-25T16:17:52.024Z,33.23
2022-08-25T16:20:21.032Z,33.29
2022-08-25T16:22:51.256Z,33.22
2022-08-25T16:25:19.743Z,33.56
2022-08-25T16:27:48.770Z,33.96
2022-08-25T16:30:17.791Z,34.44
2022-08-25T16:32:47.051Z,34.45
2022-08-25T16:35:16.540Z,34.60
2022-08-25T16:37:44.503Z,34.92
2022-08-25T16:40:14.729Z,34.86
2022-08-25T16:42:42.969Z,34.76
2022-08-25T16:45:11.897Z,35.00
2022-08-25T16:47:40.069Z,34.94
2022-08-25T16:50:11.436Z,35.00
2022-08-25T16:52:59.341Z,35.33
2022-08-25T16:55:39.494Z,35.60
2022-08-25T16:58:12.670Z,36.12
2022-08-25T17:00:44.672Z,36.52
2022-08-25T17:03:13.374Z,37.24
2022-08-25T17:05:42.896Z,38.32
2022-08-25T17:08:30.768Z,39.42
2022-08-25T17:11:18.298Z,40.63
2022-08-25T17:13:49.854Z,41.34
2022-08-25T17:16:21.203Z,41.79
2022-08-25T17:18:49.269Z,42.35
2022-08-25T17:21:24.550Z,42.67
2022-08-25T17:23:55.555Z,42.85
2022-08-25T17:26:27.807Z,43.06
2022-08-25T17:28:59.182Z,42.73
2022-08-25T17:31:29.900Z,41.52
2022-08-25T17:33:58.985Z,41.70
2022-08-25T17:36:27.964Z,42.05
2022-08-25T17:38:57.045Z,42.84
2022-08-25T17:41:26.119Z,44.04
2022-08-25T17:43:53.953Z,44.30
2022-08-25T17:46:22.047Z,44.74
2022-08-25T17:48:50.178Z,45.26
2022-08-25T17:51:18.370Z,45.75
2022-08-25T17:53:46.986Z,46.15
2022-08-25T17:56:18.645Z,46.63
2022-08-25T17:58:47.531Z,46.93
2022-08-25T18:01:22.401Z,47.71
2022-08-25T18:03:51.534Z,47.95
2022-08-25T18:06:23.241Z,48.28
2022-08-25T18:08:56.333Z,48.53
2022-08-25T18:11:28.897Z,48.88
2022-08-25T18:13:58.515Z,49.25
2022-08-25T18:16:28.459Z,49.60
2022-08-25T18:18:57.249Z,49.96
2022-08-25T18:21:30.729Z,50.33
2022-08-25T18:23:59.226Z,50.89
2022-08-25T18:26:27.918Z,51.08
2022-08-25T18:28:56.402Z,51.41
2022-08-25T18:31:25.302Z,51.63
2022-08-25T18:33:53.342Z,51.91
2022-08-25T18:36:21.389Z,52.15
2022-08-25T18:39:09.550Z,52.37
2022-08-25T18:41:40.427Z,52.73
2022-08-25T18:44:10.722Z,53.23
2022-08-25T18:46:40.592Z,53.29
2022-08-25T18:49:08.954Z,53.38
2022-08-25T18:51:37.531Z,53.76
2022-08-25T18:54:06.046Z,53.52
2022-08-25T18:56:35.001Z,53.79
2022-08-25T18:59:04.578Z,53.62
2022-08-25T19:01:36.038Z,53.68
2022-08-25T19:04:05.070Z,53.72
2022-08-25T19:06:33.247Z,54.10
2022-08-25T19:09:01.102Z,53.90
2022-08-25T19:11:29.025Z,54.09
2022-08-25T19:13:58.283Z,54.56
2022-08-25T19:16:36.451Z,54.62
2022-08-25T19:19:07.115Z,55.03
2022-08-25T19:21:35.558Z,54.83
2022-08-25T19:24:04.820Z,55.06
2022-08-25T19:26:34.603Z,55.25
2022-08-25T19:29:11.506Z,55.34
2022-08-25T19:31:41.356Z,55.76
2022-08-25T19:34:13.554Z,56.02
2022-08-25T19:36:44.186Z,56.00
2022-08-25T19:39:13.890Z,55.98
2022-08-25T19:41:45.986Z,56.06
2022-08-25T19:44:14.264Z,56.31
2022-08-25T19:46:44.905Z,56.79
2022-08-25T19:49:17.425Z,56.88
2022-08-25T19:51:51.108Z,57.06
2022-08-25T19:54:26.890Z,57.10
2022-08-25T19:56:55.889Z,57.53
2022-08-25T19:59:40.383Z,57.50
2022-08-25T20:02:29.573Z,57.88
2022-08-25T20:05:02.248Z,57.85
2022-08-25T20:07:31.437Z,58.14
2022-08-25T20:10:00.409Z,58.27
2022-08-25T20:12:29.110Z,58.39
2022-08-25T20:14:57.922Z,58.64
2022-08-25T20:17:28.463Z,58.64
2022-08-25T20:20:02.231Z,58.79
2022-08-25T20:22:34.464Z,58.93
2022-08-25T20:25:13.690Z,58.94
2022-08-25T20:27:45.983Z,58.84
2022-08-25T20:30:27.346Z,59.01
2022-08-25T20:32:57.370Z,59.24
2022-08-25T20:35:27.310Z,59.55
2022-08-25T20:37:57.316Z,59.69
2022-08-25T20:40:28.177Z,59.73
2022-08-25T20:43:02.950Z,60.10
2022-08-25T20:45:32.046Z,60.11
2022-08-25T20:48:00.485Z,60.38
2022-08-25T20:50:28.900Z,60.42
2022-08-25T20:52:58.837Z,60.75
2022-08-25T20:55:29.468Z,60.65
2022-08-25T20:58:00.943Z,61.00
2022-08-25T21:00:28.858Z,61.14
2022-08-25T21:02:57.225Z,61.22
2022-08-25T21:05:25.430Z,61.41
2022-08-25T21:07:54.423Z,61.51
2022-08-25T21:10:22.794Z,61.84
2022-08-25T21:12:53.506Z,61.86
2022-08-25T21:15:21.595Z,62.10
2022-08-25T21:17:54.677Z,62.33
2022-08-25T21:20:24.250Z,62.39
2022-08-25T21:22:53.222Z,62.58
2022-08-25T21:25:23.655Z,62.56
2022-08-25T21:27:52.994Z,62.88
2022-08-25T21:30:21.336Z,62.98
2022-08-25T21:32:53.582Z,63.09
2022-08-25T21:35:23.346Z,63.10
2022-08-25T21:37:53.380Z,63.43
2022-08-25T21:40:23.347Z,63.58
2022-08-25T21:42:52.575Z,63.67
2022-08-25T21:45:21.767Z,63.97
2022-08-25T21:47:51.995Z,63.96
2022-08-25T21:50:20.919Z,64.00
2022-08-25T21:52:48.819Z,63.87
2022-08-25T21:55:24.104Z,64.24
2022-08-25T21:57:52.840Z,64.24
2022-08-25T22:00:23.587Z,64.56
2022-08-25T22:02:51.878Z,64.43
2022-08-25T22:05:20.107Z,64.52
2022-08-25T22:07:48.046Z,64.77
2022-08-25T22:10:17.701Z,64.72
2022-08-25T22:12:48.175Z,64.91
2022-08-25T22:15:17.858Z,65.13
2022-08-25T22:17:48.107Z,65.29
2022-08-25T22:20:18.043Z,65.55
2022-08-25T22:22:46.262Z,65.58
2022-08-25T22:25:14.615Z,65.57
2022-08-25T22:27:42.815Z,65.90
2022-08-25T22:30:11.411Z,66.00
2022-08-25T22:32:39.272Z,66.00
2022-08-25T22:35:08.331Z,66.12
2022-08-25T22:37:37.593Z,66.20
2022-08-25T22:40:06.476Z,66.35
2022-08-25T22:42:34.503Z,66.38
2022-08-25T22:45:02.527Z,66.51
2022-08-25T22:47:31.377Z,66.52
2022-08-25T22:49:59.615Z,66.85
2022-08-25T22:52:33.374Z,66.99
2022-08-25T22:55:03.174Z,66.88
2022-08-25T22:57:31.818Z,67.07
2022-08-25T22:59:59.771Z,66.97
2022-08-25T23:02:28.306Z,67.20
2022-08-25T23:05:00.875Z,67.40
2022-08-25T23:07:29.718Z,67.45
2022-08-25T23:10:03.293Z,67.58
2022-08-25T23:12:32.798Z,67.68
2022-08-25T23:15:01.254Z,67.77
2022-08-25T23:17:31.848Z,68.03
2022-08-25T23:20:00.069Z,67.95
2022-08-25T23:22:28.915Z,68.02
2022-08-25T23:24:56.993Z,68.16
2022-08-25T23:27:24.948Z,68.24
2022-08-25T23:29:52.878Z,68.27
2022-08-25T23:32:22.351Z,68.42
2022-08-25T23:34:50.360Z,68.58
2022-08-25T23:37:18.965Z,68.67
2022-08-25T23:39:49.494Z,68.74
2022-08-25T23:42:20.146Z,68.93
2022-08-25T23:44:49.753Z,68.91
2022-08-25T23:47:18.907Z,68.99
2022-08-25T23:49:48.655Z,69.19
2022-08-25T23:52:17.836Z,69.15
2022-08-25T23:54:46.639Z,69.23
2022-08-25T23:57:15.076Z,69.27
2022-08-25T23:59:43.446Z,69.36
